Terminal Aerodrome Forecast
Issued by NWS Mt. Holly, NJ

Home | Current Version | Previous Version | Text Only | Print | Product List | Glossary On
Versions: 1 2 3 4 5 6 7 8 9 10 11 12 13 14 15 16 17 18 19 20 21 22 23 24 25
004
FTUS41 KPHI 241737
TAFACY
TAF
KACY 241737Z 2418/2518 33020G28KT 5SM -RADZ BR BKN015 OVC025
      TEMPO 2418/2421 SCT025 OVC035
     FM250100 31016G28KT P6SM OVC015
     FM250300 31015G27KT P6SM BKN035 BKN080
     FM250900 30012G20KT P6SM OVC025
     FM251700 29015G22KT P6SM SCT025 BKN035=

USA.gov is the U.S. government's official web portal to all federal, state and local government web resources and services.